sensor_id;sensor_type;location;lat;lon;timestamp;temperature;humidity
24087;DHT22;22893;50.572;7.234;2022-12-18T15:46:22;19.60;46.10
24087;DHT22;22893;50.572;7.234;2022-12-18T15:48:55;19.60;46.60
24087;DHT22;22893;50.572;7.234;2022-12-18T15:51:34;19.70;46.30
24087;DHT22;22893;50.572;7.234;2022-12-18T15:54:04;19.90;45.90
24087;DHT22;22893;50.572;7.234;2022-12-18T15:56:33;20.10;45.80
24087;DHT22;22893;50.572;7.234;2022-12-18T15:59:19;20.20;45.50
24087;DHT22;22893;50.572;7.234;2022-12-18T16:01:49;20.30;45.30
24087;DHT22;22893;50.572;7.234;2022-12-18T16:04:20;20.40;45.10
24087;DHT22;22893;50.572;7.234;2022-12-18T16:06:49;20.40;45.50
24087;DHT22;22893;50.572;7.234;2022-12-18T16:09:18;20.50;44.60
24087;DHT22;22893;50.572;7.234;2022-12-18T16:11:45;20.60;44.40
24087;DHT22;22893;50.572;7.234;2022-12-18T16:14:28;20.60;44.20
24087;DHT22;22893;50.572;7.234;2022-12-18T16:16:59;20.60;44.60
24087;DHT22;22893;50.572;7.234;2022-12-18T16:19:27;20.70;44.10
24087;DHT22;22893;50.572;7.234;2022-12-18T16:21:57;20.70;44.00
24087;DHT22;22893;50.572;7.234;2022-12-18T16:24:30;20.70;44.00
24087;DHT22;22893;50.572;7.234;2022-12-18T16:26:58;20.70;44.00
24087;DHT22;22893;50.572;7.234;2022-12-18T16:29:28;20.70;43.90
24087;DHT22;22893;50.572;7.234;2022-12-18T16:31:57;20.80;43.90
24087;DHT22;22893;50.572;7.234;2022-12-18T16:34:27;20.80;43.80
24087;DHT22;22893;50.572;7.234;2022-12-18T16:36:56;20.80;43.80
24087;DHT22;22893;50.572;7.234;2022-12-18T16:39:24;20.80;43.70
24087;DHT22;22893;50.572;7.234;2022-12-18T16:41:51;20.80;43.80
24087;DHT22;22893;50.572;7.234;2022-12-18T16:44:19;20.90;43.80
24087;DHT22;22893;50.572;7.234;2022-12-18T16:46:47;20.80;43.70
24087;DHT22;22893;50.572;7.234;2022-12-18T16:49:17;20.80;43.70
24087;DHT22;22893;50.572;7.234;2022-12-18T16:51:46;20.90;43.60
24087;DHT22;22893;50.572;7.234;2022-12-18T16:54:14;20.90;43.60
24087;DHT22;22893;50.572;7.234;2022-12-18T16:56:41;20.90;43.60
24087;DHT22;22893;50.572;7.234;2022-12-18T16:59:10;20.90;43.60
24087;DHT22;22893;50.572;7.234;2022-12-18T17:01:38;20.90;43.70
24087;DHT22;22893;50.572;7.234;2022-12-18T17:04:07;20.90;43.60
24087;DHT22;22893;50.572;7.234;2022-12-18T17:06:41;20.90;43.60
24087;DHT22;22893;50.572;7.234;2022-12-18T17:09:11;20.90;43.70
24087;DHT22;22893;50.572;7.234;2022-12-18T17:11:41;20.90;43.90
24087;DHT22;22893;50.572;7.234;2022-12-18T17:14:14;20.90;44.00
24087;DHT22;22893;50.572;7.234;2022-12-18T17:16:42;20.90;44.00
24087;DHT22;22893;50.572;7.234;2022-12-18T17:19:10;20.90;44.10
24087;DHT22;22893;50.572;7.234;2022-12-18T17:21:38;20.90;44.10
24087;DHT22;22893;50.572;7.234;2022-12-18T17:24:06;21.00;44.20
24087;DHT22;22893;50.572;7.234;2022-12-18T17:26:34;20.90;44.10
24087;DHT22;22893;50.572;7.234;2022-12-18T17:29:01;21.00;44.30
24087;DHT22;22893;50.572;7.234;2022-12-18T17:31:30;20.90;44.30
24087;DHT22;22893;50.572;7.234;2022-12-18T17:33:59;21.00;44.50
24087;DHT22;22893;50.572;7.234;2022-12-18T17:36:27;21.00;44.40
24087;DHT22;22893;50.572;7.234;2022-12-18T17:38:59;20.90;44.40
24087;DHT22;22893;50.572;7.234;2022-12-18T17:41:28;20.90;44.40
24087;DHT22;22893;50.572;7.234;2022-12-18T17:43:59;21.00;44.40
24087;DHT22;22893;50.572;7.234;2022-12-18T17:46:28;21.00;44.40
24087;DHT22;22893;50.572;7.234;2022-12-18T17:48:57;21.00;44.50
24087;DHT22;22893;50.572;7.234;2022-12-18T17:51:25;21.00;44.50
24087;DHT22;22893;50.572;7.234;2022-12-18T17:53:53;21.00;44.40
24087;DHT22;22893;50.572;7.234;2022-12-18T17:56:22;21.00;44.40
24087;DHT22;22893;50.572;7.234;2022-12-18T17:58:50;21.00;44.40
24087;DHT22;22893;50.572;7.234;2022-12-18T18:01:22;21.00;44.40
24087;DHT22;22893;50.572;7.234;2022-12-18T18:03:49;21.00;44.40
24087;DHT22;22893;50.572;7.234;2022-12-18T18:06:17;21.00;44.40
24087;DHT22;22893;50.572;7.234;2022-12-18T18:08:45;21.00;44.30
24087;DHT22;22893;50.572;7.234;2022-12-18T18:11:15;21.00;44.40
24087;DHT22;22893;50.572;7.234;2022-12-18T18:14:02;21.10;44.30
24087;DHT22;22893;50.572;7.234;2022-12-18T18:16:39;21.10;44.40
24087;DHT22;22893;50.572;7.234;2022-12-18T18:19:03;21.00;44.40
24087;DHT22;22893;50.572;7.234;2022-12-18T18:21:31;21.00;44.40
24087;DHT22;22893;50.572;7.234;2022-12-18T18:24:01;21.00;44.40
24087;DHT22;22893;50.572;7.234;2022-12-18T18:26:30;21.00;44.50
24087;DHT22;22893;50.572;7.234;2022-12-18T18:28:59;21.00;44.40
24087;DHT22;22893;50.572;7.234;2022-12-18T18:31:29;21.00;44.40
24087;DHT22;22893;50.572;7.234;2022-12-18T18:33:57;21.00;44.40
24087;DHT22;22893;50.572;7.234;2022-12-18T18:36:24;21.00;44.30
24087;DHT22;22893;50.572;7.234;2022-12-18T18:38:53;21.10;44.40
24087;DHT22;22893;50.572;7.234;2022-12-18T18:41:20;21.10;44.40
24087;DHT22;22893;50.572;7.234;2022-12-18T18:43:55;21.00;44.30
24087;DHT22;22893;50.572;7.234;2022-12-18T18:46:23;21.00;44.30
24087;DHT22;22893;50.572;7.234;2022-12-18T18:48:51;21.10;44.30
24087;DHT22;22893;50.572;7.234;2022-12-18T18:51:19;21.10;44.30
24087;DHT22;22893;50.572;7.234;2022-12-18T18:53:48;21.10;44.30
24087;DHT22;22893;50.572;7.234;2022-12-18T18:56:19;21.10;44.30
24087;DHT22;22893;50.572;7.234;2022-12-18T18:58:46;21.10;44.30
24087;DHT22;22893;50.572;7.234;2022-12-18T19:01:16;21.10;44.20
24087;DHT22;22893;50.572;7.234;2022-12-18T19:03:45;21.10;44.30
24087;DHT22;22893;50.572;7.234;2022-12-18T19:06:19;21.00;44.20
24087;DHT22;22893;50.572;7.234;2022-12-18T19:08:47;21.10;44.30
24087;DHT22;22893;50.572;7.234;2022-12-18T19:11:15;21.10;44.30
24087;DHT22;22893;50.572;7.234;2022-12-18T19:14:04;21.00;44.20
24087;DHT22;22893;50.572;7.234;2022-12-18T19:16:33;21.00;44.40
24087;DHT22;22893;50.572;7.234;2022-12-18T19:21:50;21.10;44.30
24087;DHT22;22893;50.572;7.234;2022-12-18T19:24:18;21.10;44.20
24087;DHT22;22893;50.572;7.234;2022-12-18T19:26:45;21.10;44.40
24087;DHT22;22893;50.572;7.234;2022-12-18T19:29:13;21.10;44.30
24087;DHT22;22893;50.572;7.234;2022-12-18T19:31:41;21.10;44.30
24087;DHT22;22893;50.572;7.234;2022-12-18T19:34:09;21.10;44.40
24087;DHT22;22893;50.572;7.234;2022-12-18T19:36:56;21.10;44.40
24087;DHT22;22893;50.572;7.234;2022-12-18T19:39:24;21.10;44.10
24087;DHT22;22893;50.572;7.234;2022-12-18T19:41:52;21.10;44.30
24087;DHT22;22893;50.572;7.234;2022-12-18T19:44:20;21.10;44.20
24087;DHT22;22893;50.572;7.234;2022-12-18T19:46:49;21.10;44.40
24087;DHT22;22893;50.572;7.234;2022-12-18T19:49:19;21.00;44.20
24087;DHT22;22893;50.572;7.234;2022-12-18T19:51:47;21.10;44.30
24087;DHT22;22893;50.572;7.234;2022-12-18T19:54:14;21.10;44.20
24087;DHT22;22893;50.572;7.234;2022-12-18T19:56:42;21.10;44.20
24087;DHT22;22893;50.572;7.234;2022-12-18T19:59:10;21.10;44.10
24087;DHT22;22893;50.572;7.234;2022-12-18T20:01:37;21.10;44.10
24087;DHT22;22893;50.572;7.234;2022-12-18T20:04:05;21.10;44.80
24087;DHT22;22893;50.572;7.234;2022-12-18T20:09:16;21.00;44.10
24087;DHT22;22893;50.572;7.234;2022-12-18T20:11:43;21.10;44.20
24087;DHT22;22893;50.572;7.234;2022-12-18T20:14:12;21.00;44.10
24087;DHT22;22893;50.572;7.234;2022-12-18T20:16:41;21.10;44.60
24087;DHT22;22893;50.572;7.234;2022-12-18T20:19:09;21.10;44.10
24087;DHT22;22893;50.572;7.234;2022-12-18T20:21:38;21.10;44.20
24087;DHT22;22893;50.572;7.234;2022-12-18T20:24:06;21.10;44.20
24087;DHT22;22893;50.572;7.234;2022-12-18T20:26:34;21.10;44.20
24087;DHT22;22893;50.572;7.234;2022-12-18T20:29:02;21.00;44.10
24087;DHT22;22893;50.572;7.234;2022-12-18T20:31:29;21.10;44.20
24087;DHT22;22893;50.572;7.234;2022-12-18T20:33:57;21.10;44.20
24087;DHT22;22893;50.572;7.234;2022-12-18T20:36:25;21.10;44.20
24087;DHT22;22893;50.572;7.234;2022-12-18T20:38:52;21.10;44.10
24087;DHT22;22893;50.572;7.234;2022-12-18T20:41:22;21.10;44.20
24087;DHT22;22893;50.572;7.234;2022-12-18T20:43:50;21.10;44.20
24087;DHT22;22893;50.572;7.234;2022-12-18T20:46:17;21.10;44.20
24087;DHT22;22893;50.572;7.234;2022-12-18T20:48:46;21.10;44.20
24087;DHT22;22893;50.572;7.234;2022-12-18T20:51:16;21.10;44.20
24087;DHT22;22893;50.572;7.234;2022-12-18T20:53:45;21.10;44.20
24087;DHT22;22893;50.572;7.234;2022-12-18T20:56:18;21.10;44.20
24087;DHT22;22893;50.572;7.234;2022-12-18T20:58:46;21.10;44.20
24087;DHT22;22893;50.572;7.234;2022-12-18T21:01:16;21.10;44.20
24087;DHT22;22893;50.572;7.234;2022-12-18T21:03:45;21.10;44.20
24087;DHT22;22893;50.572;7.234;2022-12-18T21:06:15;21.10;44.20
24087;DHT22;22893;50.572;7.234;2022-12-18T21:08:43;21.20;44.30
24087;DHT22;22893;50.572;7.234;2022-12-18T21:14:20;21.10;44.20
24087;DHT22;22893;50.572;7.234;2022-12-18T21:16:49;21.20;44.20
24087;DHT22;22893;50.572;7.234;2022-12-18T21:19:20;21.10;44.20
24087;DHT22;22893;50.572;7.234;2022-12-18T21:21:48;21.10;44.20
24087;DHT22;22893;50.572;7.234;2022-12-18T21:24:17;21.10;44.20
24087;DHT22;22893;50.572;7.234;2022-12-18T21:26:46;21.10;44.20
24087;DHT22;22893;50.572;7.234;2022-12-18T21:29:20;21.10;44.10
24087;DHT22;22893;50.572;7.234;2022-12-18T21:31:49;21.10;44.20
24087;DHT22;22893;50.572;7.234;2022-12-18T21:34:22;21.20;44.10
24087;DHT22;22893;50.572;7.234;2022-12-18T21:36:48;21.10;44.10
24087;DHT22;22893;50.572;7.234;2022-12-18T21:39:16;21.10;44.00
24087;DHT22;22893;50.572;7.234;2022-12-18T21:41:44;21.10;44.10
24087;DHT22;22893;50.572;7.234;2022-12-18T21:44:29;21.10;44.00
24087;DHT22;22893;50.572;7.234;2022-12-18T21:46:57;21.10;43.90
24087;DHT22;22893;50.572;7.234;2022-12-18T21:49:25;21.20;43.90
24087;DHT22;22893;50.572;7.234;2022-12-18T21:51:54;21.10;44.00
24087;DHT22;22893;50.572;7.234;2022-12-18T21:54:24;21.20;44.00
24087;DHT22;22893;50.572;7.234;2022-12-18T21:56:53;21.20;44.00
24087;DHT22;22893;50.572;7.234;2022-12-18T21:59:24;21.20;44.00
24087;DHT22;22893;50.572;7.234;2022-12-18T22:01:53;21.20;44.30
24087;DHT22;22893;50.572;7.234;2022-12-18T22:04:21;21.10;43.70
24087;DHT22;22893;50.572;7.234;2022-12-18T22:06:49;21.10;44.10
24087;DHT22;22893;50.572;7.234;2022-12-18T22:09:19;21.20;44.10
24087;DHT22;22893;50.572;7.234;2022-12-18T22:11:48;21.10;44.10
24087;DHT22;22893;50.572;7.234;2022-12-18T22:14:20;21.10;44.10
24087;DHT22;22893;50.572;7.234;2022-12-18T22:16:49;21.10;44.10
24087;DHT22;22893;50.572;7.234;2022-12-18T22:19:18;21.10;44.10
24087;DHT22;22893;50.572;7.234;2022-12-18T22:21:47;21.20;44.20
24087;DHT22;22893;50.572;7.234;2022-12-18T22:24:20;21.10;44.10
24087;DHT22;22893;50.572;7.234;2022-12-18T22:26:50;21.20;44.20
24087;DHT22;22893;50.572;7.234;2022-12-18T22:29:20;21.20;44.20
24087;DHT22;22893;50.572;7.234;2022-12-18T22:32:08;21.10;44.80
24087;DHT22;22893;50.572;7.234;2022-12-18T22:34:36;21.10;44.20
24087;DHT22;22893;50.572;7.234;2022-12-18T22:37:05;21.10;44.20
24087;DHT22;22893;50.572;7.234;2022-12-18T22:39:32;21.10;44.20
24087;DHT22;22893;50.572;7.234;2022-12-18T22:42:00;21.10;44.20
24087;DHT22;22893;50.572;7.234;2022-12-18T22:44:27;21.10;44.20
24087;DHT22;22893;50.572;7.234;2022-12-18T22:46:55;21.10;44.20
24087;DHT22;22893;50.572;7.234;2022-12-18T22:49:24;21.10;44.20
24087;DHT22;22893;50.572;7.234;2022-12-18T22:51:53;21.10;45.20
24087;DHT22;22893;50.572;7.234;2022-12-18T22:54:22;21.10;44.80
24087;DHT22;22893;50.572;7.234;2022-12-18T22:56:49;21.10;44.80
24087;DHT22;22893;50.572;7.234;2022-12-18T22:59:19;21.10;44.60
24087;DHT22;22893;50.572;7.234;2022-12-18T23:01:48;21.10;44.60
24087;DHT22;22893;50.572;7.234;2022-12-18T23:04:17;21.10;44.60
24087;DHT22;22893;50.572;7.234;2022-12-18T23:06:45;21.10;44.60
24087;DHT22;22893;50.572;7.234;2022-12-18T23:09:18;21.10;44.50
24087;DHT22;22893;50.572;7.234;2022-12-18T23:11:46;21.10;44.40
